sensor_id;sensor_type;location;lat;lon;timestamp;temperature;humidity
75821;DHT22;64454;51.984;9.838;2023-06-22T00:01:17;21.90;1.00
75821;DHT22;64454;51.984;9.838;2023-06-22T00:03:47;21.90;1.00
75821;DHT22;64454;51.984;9.838;2023-06-22T00:06:14;21.80;1.00
75821;DHT22;64454;51.984;9.838;2023-06-22T00:08:41;21.80;1.00
75821;DHT22;64454;51.984;9.838;2023-06-22T00:11:08;21.70;1.00
75821;DHT22;64454;51.984;9.838;2023-06-22T00:13:35;21.70;1.00
75821;DHT22;64454;51.984;9.838;2023-06-22T00:16:02;21.60;1.00
75821;DHT22;64454;51.984;9.838;2023-06-22T00:18:29;21.60;1.00
75821;DHT22;64454;51.984;9.838;2023-06-22T00:20:59;21.60;1.00
75821;DHT22;64454;51.984;9.838;2023-06-22T00:23:26;21.70;1.00
75821;DHT22;64454;51.984;9.838;2023-06-22T00:25:53;21.60;1.00
75821;DHT22;64454;51.984;9.838;2023-06-22T00:28:20;21.50;1.00
75821;DHT22;64454;51.984;9.838;2023-06-22T00:30:48;21.40;1.60
75821;DHT22;64454;51.984;9.838;2023-06-22T00:33:16;21.40;10.10
75821;DHT22;64454;51.984;9.838;2023-06-22T00:35:43;21.30;14.70
75821;DHT22;64454;51.984;9.838;2023-06-22T00:38:11;21.30;21.80
75821;DHT22;64454;51.984;9.838;2023-06-22T00:40:38;21.30;49.10
75821;DHT22;64454;51.984;9.838;2023-06-22T00:43:05;21.20;18.50
75821;DHT22;64454;51.984;9.838;2023-06-22T00:45:32;21.10;20.60
75821;DHT22;64454;51.984;9.838;2023-06-22T00:47:59;21.10;26.30
75821;DHT22;64454;51.984;9.838;2023-06-22T00:50:28;21.00;33.20
75821;DHT22;64454;51.984;9.838;2023-06-22T00:52:59;21.10;38.50
75821;DHT22;64454;51.984;9.838;2023-06-22T00:55:31;21.00;38.60
75821;DHT22;64454;51.984;9.838;2023-06-22T00:57:59;21.00;44.40
75821;DHT22;64454;51.984;9.838;2023-06-22T01:00:26;21.10;34.00
75821;DHT22;64454;51.984;9.838;2023-06-22T01:02:53;21.10;25.70
75821;DHT22;64454;51.984;9.838;2023-06-22T01:05:21;21.10;24.20
75821;DHT22;64454;51.984;9.838;2023-06-22T01:08:06;21.20;26.50
75821;DHT22;64454;51.984;9.838;2023-06-22T01:10:44;21.30;22.20
75821;DHT22;64454;51.984;9.838;2023-06-22T01:13:27;21.30;10.90
75821;DHT22;64454;51.984;9.838;2023-06-22T01:16:02;21.30;10.60
75821;DHT22;64454;51.984;9.838;2023-06-22T01:18:32;21.30;17.40
75821;DHT22;64454;51.984;9.838;2023-06-22T01:21:04;21.40;19.30
75821;DHT22;64454;51.984;9.838;2023-06-22T01:23:49;21.30;23.40
75821;DHT22;64454;51.984;9.838;2023-06-22T01:26:28;21.30;13.50
75821;DHT22;64454;51.984;9.838;2023-06-22T01:29:04;21.30;13.70
75821;DHT22;64454;51.984;9.838;2023-06-22T01:31:34;21.30;9.40
75821;DHT22;64454;51.984;9.838;2023-06-22T01:34:03;21.30;9.40
75821;DHT22;64454;51.984;9.838;2023-06-22T01:36:33;21.30;9.30
75821;DHT22;64454;51.984;9.838;2023-06-22T01:39:02;21.40;5.50
75821;DHT22;64454;51.984;9.838;2023-06-22T01:41:35;21.40;1.00
75821;DHT22;64454;51.984;9.838;2023-06-22T01:44:05;21.40;1.00
75821;DHT22;64454;51.984;9.838;2023-06-22T01:46:34;21.40;1.00
75821;DHT22;64454;51.984;9.838;2023-06-22T01:49:02;21.30;1.00
75821;DHT22;64454;51.984;9.838;2023-06-22T01:51:31;21.30;1.00
75821;DHT22;64454;51.984;9.838;2023-06-22T01:53:58;21.30;1.00
75821;DHT22;64454;51.984;9.838;2023-06-22T01:56:26;21.30;1.00
75821;DHT22;64454;51.984;9.838;2023-06-22T01:58:59;21.20;4.00
75821;DHT22;64454;51.984;9.838;2023-06-22T02:01:35;21.30;7.00
75821;DHT22;64454;51.984;9.838;2023-06-22T02:04:18;21.30;2.30
75821;DHT22;64454;51.984;9.838;2023-06-22T02:06:52;21.30;1.00
75821;DHT22;64454;51.984;9.838;2023-06-22T02:09:23;21.30;1.00
75821;DHT22;64454;51.984;9.838;2023-06-22T02:11:55;21.30;1.00
75821;DHT22;64454;51.984;9.838;2023-06-22T02:14:24;21.30;3.10
75821;DHT22;64454;51.984;9.838;2023-06-22T02:16:53;21.30;4.70
75821;DHT22;64454;51.984;9.838;2023-06-22T02:19:23;21.30;3.10
75821;DHT22;64454;51.984;9.838;2023-06-22T02:21:51;21.30;1.00
75821;DHT22;64454;51.984;9.838;2023-06-22T02:24:19;21.30;1.00
75821;DHT22;64454;51.984;9.838;2023-06-22T02:26:49;21.40;1.00
75821;DHT22;64454;51.984;9.838;2023-06-22T02:29:17;21.40;1.00
75821;DHT22;64454;51.984;9.838;2023-06-22T02:31:45;21.40;1.00
75821;DHT22;64454;51.984;9.838;2023-06-22T02:34:14;21.40;1.00
75821;DHT22;64454;51.984;9.838;2023-06-22T02:36:43;21.40;6.90
75821;DHT22;64454;51.984;9.838;2023-06-22T02:39:19;21.40;1.00
75821;DHT22;64454;51.984;9.838;2023-06-22T02:41:47;21.40;1.00
75821;DHT22;64454;51.984;9.838;2023-06-22T02:44:16;21.40;1.00
75821;DHT22;64454;51.984;9.838;2023-06-22T02:46:46;21.40;1.00
75821;DHT22;64454;51.984;9.838;2023-06-22T02:49:16;21.40;1.00
75821;DHT22;64454;51.984;9.838;2023-06-22T02:51:46;21.30;1.00
75821;DHT22;64454;51.984;9.838;2023-06-22T02:54:16;21.40;1.00
75821;DHT22;64454;51.984;9.838;2023-06-22T02:56:44;21.40;1.00
75821;DHT22;64454;51.984;9.838;2023-06-22T02:59:11;21.40;6.90
75821;DHT22;64454;51.984;9.838;2023-06-22T03:01:38;21.40;1.00
75821;DHT22;64454;51.984;9.838;2023-06-22T03:04:06;21.40;1.00
75821;DHT22;64454;51.984;9.838;2023-06-22T03:06:35;21.30;3.50
75821;DHT22;64454;51.984;9.838;2023-06-22T03:09:03;21.40;9.20
75821;DHT22;64454;51.984;9.838;2023-06-22T03:11:31;21.40;11.50
75821;DHT22;64454;51.984;9.838;2023-06-22T03:13:59;21.30;14.80
75821;DHT22;64454;51.984;9.838;2023-06-22T03:16:27;21.30;12.90
75821;DHT22;64454;51.984;9.838;2023-06-22T03:18:54;21.40;14.80
75821;DHT22;64454;51.984;9.838;2023-06-22T03:21:22;21.40;16.60
75821;DHT22;64454;51.984;9.838;2023-06-22T03:23:51;21.50;16.90
75821;DHT22;64454;51.984;9.838;2023-06-22T03:26:18;21.50;14.70
75821;DHT22;64454;51.984;9.838;2023-06-22T03:28:45;21.50;14.90
75821;DHT22;64454;51.984;9.838;2023-06-22T03:31:12;21.60;14.40
75821;DHT22;64454;51.984;9.838;2023-06-22T03:33:38;21.60;15.10
75821;DHT22;64454;51.984;9.838;2023-06-22T03:36:05;21.60;13.80
75821;DHT22;64454;51.984;9.838;2023-06-22T03:38:32;21.70;13.90
75821;DHT22;64454;51.984;9.838;2023-06-22T03:41:00;21.70;8.30
75821;DHT22;64454;51.984;9.838;2023-06-22T03:43:27;21.70;1.00
75821;DHT22;64454;51.984;9.838;2023-06-22T03:45:54;21.70;1.00
75821;DHT22;64454;51.984;9.838;2023-06-22T03:48:21;21.70;1.00
75821;DHT22;64454;51.984;9.838;2023-06-22T03:50:47;21.70;8.90
75821;DHT22;64454;51.984;9.838;2023-06-22T03:53:14;21.80;8.70
75821;DHT22;64454;51.984;9.838;2023-06-22T03:55:48;21.80;1.00
75821;DHT22;64454;51.984;9.838;2023-06-22T03:58:18;21.90;1.00
75821;DHT22;64454;51.984;9.838;2023-06-22T04:00:45;21.90;1.00
75821;DHT22;64454;51.984;9.838;2023-06-22T04:03:12;21.80;1.00
75821;DHT22;64454;51.984;9.838;2023-06-22T04:05:39;21.80;1.00
75821;DHT22;64454;51.984;9.838;2023-06-22T04:08:06;21.80;1.00
75821;DHT22;64454;51.984;9.838;2023-06-22T04:10:34;21.70;1.00
75821;DHT22;64454;51.984;9.838;2023-06-22T04:13:01;21.70;1.00
75821;DHT22;64454;51.984;9.838;2023-06-22T04:15:29;21.70;1.00
75821;DHT22;64454;51.984;9.838;2023-06-22T04:17:56;21.70;1.00
75821;DHT22;64454;51.984;9.838;2023-06-22T04:20:23;21.70;1.00
75821;DHT22;64454;51.984;9.838;2023-06-22T04:22:52;21.80;7.80
75821;DHT22;64454;51.984;9.838;2023-06-22T04:25:19;21.80;1.00
75821;DHT22;64454;51.984;9.838;2023-06-22T04:27:46;21.80;1.00
75821;DHT22;64454;51.984;9.838;2023-06-22T04:30:14;21.90;1.00
75821;DHT22;64454;51.984;9.838;2023-06-22T04:32:43;21.90;1.00
75821;DHT22;64454;51.984;9.838;2023-06-22T04:35:10;21.90;1.00
75821;DHT22;64454;51.984;9.838;2023-06-22T04:37:37;21.90;1.00
75821;DHT22;64454;51.984;9.838;2023-06-22T04:40:06;21.90;1.00
75821;DHT22;64454;51.984;9.838;2023-06-22T04:42:34;21.90;1.00
75821;DHT22;64454;51.984;9.838;2023-06-22T04:45:02;21.90;4.00
75821;DHT22;64454;51.984;9.838;2023-06-22T04:47:30;21.90;7.60
75821;DHT22;64454;51.984;9.838;2023-06-22T04:49:58;21.90;12.30
75821;DHT22;64454;51.984;9.838;2023-06-22T04:52:25;21.90;17.30
75821;DHT22;64454;51.984;9.838;2023-06-22T04:54:52;21.80;22.10
75821;DHT22;64454;51.984;9.838;2023-06-22T04:57:21;21.90;26.10
75821;DHT22;64454;51.984;9.838;2023-06-22T04:59:58;21.80;28.80
75821;DHT22;64454;51.984;9.838;2023-06-22T05:02:40;21.80;29.00
75821;DHT22;64454;51.984;9.838;2023-06-22T05:05:09;21.70;34.50
75821;DHT22;64454;51.984;9.838;2023-06-22T05:07:39;21.60;32.20
75821;DHT22;64454;51.984;9.838;2023-06-22T05:10:09;21.60;34.50
75821;DHT22;64454;51.984;9.838;2023-06-22T05:12:36;21.70;37.70
75821;DHT22;64454;51.984;9.838;2023-06-22T05:15:04;21.80;31.70
75821;DHT22;64454;51.984;9.838;2023-06-22T05:17:31;21.70;36.90
75821;DHT22;64454;51.984;9.838;2023-06-22T05:19:58;21.80;36.10
75821;DHT22;64454;51.984;9.838;2023-06-22T05:22:26;21.80;34.90
75821;DHT22;64454;51.984;9.838;2023-06-22T05:24:53;21.80;34.00
75821;DHT22;64454;51.984;9.838;2023-06-22T05:27:19;21.80;26.60
75821;DHT22;64454;51.984;9.838;2023-06-22T05:29:46;22.00;21.80
75821;DHT22;64454;51.984;9.838;2023-06-22T05:32:13;22.00;21.10
75821;DHT22;64454;51.984;9.838;2023-06-22T05:34:40;22.10;13.70
75821;DHT22;64454;51.984;9.838;2023-06-22T05:37:06;22.10;13.00
75821;DHT22;64454;51.984;9.838;2023-06-22T05:39:36;22.20;14.20
75821;DHT22;64454;51.984;9.838;2023-06-22T05:42:04;22.20;11.70
75821;DHT22;64454;51.984;9.838;2023-06-22T05:44:32;22.30;5.60
75821;DHT22;64454;51.984;9.838;2023-06-22T05:46:59;22.20;1.00
75821;DHT22;64454;51.984;9.838;2023-06-22T05:49:26;22.10;4.20
75821;DHT22;64454;51.984;9.838;2023-06-22T05:51:55;22.10;10.60
75821;DHT22;64454;51.984;9.838;2023-06-22T05:54:22;22.10;19.50
75821;DHT22;64454;51.984;9.838;2023-06-22T05:56:50;22.10;18.60
75821;DHT22;64454;51.984;9.838;2023-06-22T05:59:18;22.10;22.30
75821;DHT22;64454;51.984;9.838;2023-06-22T06:01:46;22.10;33.00
75821;DHT22;64454;51.984;9.838;2023-06-22T06:04:17;22.10;32.90
75821;DHT22;64454;51.984;9.838;2023-06-22T06:06:46;22.10;36.90
75821;DHT22;64454;51.984;9.838;2023-06-22T06:09:14;22.10;41.10
75821;DHT22;64454;51.984;9.838;2023-06-22T06:11:42;22.20;54.10
75821;DHT22;64454;51.984;9.838;2023-06-22T06:14:10;22.20;36.50
75821;DHT22;64454;51.984;9.838;2023-06-22T06:16:37;22.30;28.00
75821;DHT22;64454;51.984;9.838;2023-06-22T06:19:04;22.40;27.20
75821;DHT22;64454;51.984;9.838;2023-06-22T06:21:31;22.50;24.60
75821;DHT22;64454;51.984;9.838;2023-06-22T06:23:58;22.50;22.70
75821;DHT22;64454;51.984;9.838;2023-06-22T06:26:25;22.60;22.90
75821;DHT22;64454;51.984;9.838;2023-06-22T06:28:55;22.60;20.30
75821;DHT22;64454;51.984;9.838;2023-06-22T06:31:24;22.60;23.50
75821;DHT22;64454;51.984;9.838;2023-06-22T06:33:54;22.60;21.80
75821;DHT22;64454;51.984;9.838;2023-06-22T06:36:21;22.80;14.50
75821;DHT22;64454;51.984;9.838;2023-06-22T06:38:47;22.80;7.60
75821;DHT22;64454;51.984;9.838;2023-06-22T06:41:15;23.00;1.00
75821;DHT22;64454;51.984;9.838;2023-06-22T06:43:42;23.00;1.00
75821;DHT22;64454;51.984;9.838;2023-06-22T06:46:09;23.00;1.00
75821;DHT22;64454;51.984;9.838;2023-06-22T06:48:37;23.00;1.00
75821;DHT22;64454;51.984;9.838;2023-06-22T06:51:05;22.90;2.80
75821;DHT22;64454;51.984;9.838;2023-06-22T06:53:35;23.00;12.60
75821;DHT22;64454;51.984;9.838;2023-06-22T06:56:02;22.90;13.40
75821;DHT22;64454;51.984;9.838;2023-06-22T06:58:30;23.00;7.80
75821;DHT22;64454;51.984;9.838;2023-06-22T07:00:58;23.00;15.30
75821;DHT22;64454;51.984;9.838;2023-06-22T07:03:24;23.20;19.50
75821;DHT22;64454;51.984;9.838;2023-06-22T07:05:52;23.30;23.30
75821;DHT22;64454;51.984;9.838;2023-06-22T07:08:19;23.50;10.60
75821;DHT22;64454;51.984;9.838;2023-06-22T07:10:46;23.70;4.40
75821;DHT22;64454;51.984;9.838;2023-06-22T07:13:13;23.80;14.70
75821;DHT22;64454;51.984;9.838;2023-06-22T07:15:40;23.80;41.80
75821;DHT22;64454;51.984;9.838;2023-06-22T07:18:07;23.70;71.50
75821;DHT22;64454;51.984;9.838;2023-06-22T07:20:34;23.70;52.40
75821;DHT22;64454;51.984;9.838;2023-06-22T07:23:02;23.60;57.80
75821;DHT22;64454;51.984;9.838;2023-06-22T07:25:29;23.60;56.80
75821;DHT22;64454;51.984;9.838;2023-06-22T07:28:02;23.60;58.40
75821;DHT22;64454;51.984;9.838;2023-06-22T07:30:30;23.60;72.50
75821;DHT22;64454;51.984;9.838;2023-06-22T07:32:58;23.70;68.40
75821;DHT22;64454;51.984;9.838;2023-06-22T07:35:29;23.70;46.40
75821;DHT22;64454;51.984;9.838;2023-06-22T07:37:55;23.60;33.30
75821;DHT22;64454;51.984;9.838;2023-06-22T07:40:24;23.50;26.80
75821;DHT22;64454;51.984;9.838;2023-06-22T07:42:51;23.60;24.60
75821;DHT22;64454;51.984;9.838;2023-06-22T07:45:18;23.60;14.90
75821;DHT22;64454;51.984;9.838;2023-06-22T07:47:45;23.50;16.40
75821;DHT22;64454;51.984;9.838;2023-06-22T07:50:12;23.50;26.60
75821;DHT22;64454;51.984;9.838;2023-06-22T07:52:39;23.70;27.30
75821;DHT22;64454;51.984;9.838;2023-06-22T07:55:06;23.50;7.20
75821;DHT22;64454;51.984;9.838;2023-06-22T07:57:35;23.50;4.20
75821;DHT22;64454;51.984;9.838;2023-06-22T08:00:04;23.60;10.70
75821;DHT22;64454;51.984;9.838;2023-06-22T08:02:37;23.60;4.00
75821;DHT22;64454;51.984;9.838;2023-06-22T08:05:05;23.70;1.00
75821;DHT22;64454;51.984;9.838;2023-06-22T08:07:33;23.60;6.20
75821;DHT22;64454;51.984;9.838;2023-06-22T08:10:00;23.70;19.30
75821;DHT22;64454;51.984;9.838;2023-06-22T08:12:27;23.80;5.00
75821;DHT22;64454;51.984;9.838;2023-06-22T08:14:56;24.00;1.00
75821;DHT22;64454;51.984;9.838;2023-06-22T08:17:23;24.10;1.00
75821;DHT22;64454;51.984;9.838;2023-06-22T08:19:50;24.20;1.00
75821;DHT22;64454;51.984;9.838;2023-06-22T08:22:17;24.20;1.00
75821;DHT22;64454;51.984;9.838;2023-06-22T08:24:44;24.00;1.00
75821;DHT22;64454;51.984;9.838;2023-06-22T08:27:11;24.00;1.00
75821;DHT22;64454;51.984;9.838;2023-06-22T08:29:38;24.00;1.00
75821;DHT22;64454;51.984;9.838;2023-06-22T08:32:09;23.90;1.00
75821;DHT22;64454;51.984;9.838;2023-06-22T08:34:36;23.80;1.00
75821;DHT22;64454;51.984;9.838;2023-06-22T08:37:03;23.80;1.00
75821;DHT22;64454;51.984;9.838;2023-06-22T08:39:31;23.60;1.00
75821;DHT22;64454;51.984;9.838;2023-06-22T08:41:58;23.50;4.70
75821;DHT22;64454;51.984;9.838;2023-06-22T08:44:25;23.50;9.60
75821;DHT22;64454;51.984;9.838;2023-06-22T08:46:52;23.50;14.10
75821;DHT22;64454;51.984;9.838;2023-06-22T08:49:21;23.60;23.70
75821;DHT22;64454;51.984;9.838;2023-06-22T08:51:48;23.70;30.40
75821;DHT22;64454;51.984;9.838;2023-06-22T08:54:19;23.80;31.80
75821;DHT22;64454;51.984;9.838;2023-06-22T08:56:46;24.00;29.50
75821;DHT22;64454;51.984;9.838;2023-06-22T08:59:14;24.20;16.50
75821;DHT22;64454;51.984;9.838;2023-06-22T09:01:42;24.30;1.00
75821;DHT22;64454;51.984;9.838;2023-06-22T09:04:11;24.70;1.00
75821;DHT22;64454;51.984;9.838;2023-06-22T09:06:39;25.00;1.00
75821;DHT22;64454;51.984;9.838;2023-06-22T09:09:10;25.40;1.00
75821;DHT22;64454;51.984;9.838;2023-06-22T09:11:37;25.90;1.00
75821;DHT22;64454;51.984;9.838;2023-06-22T09:14:04;26.00;1.00
75821;DHT22;64454;51.984;9.838;2023-06-22T09:16:31;25.90;1.00
75821;DHT22;64454;51.984;9.838;2023-06-22T09:18:58;25.80;1.00
75821;DHT22;64454;51.984;9.838;2023-06-22T09:21:25;25.80;1.00
75821;DHT22;64454;51.984;9.838;2023-06-22T09:23:53;25.80;1.00
75821;DHT22;64454;51.984;9.838;2023-06-22T09:26:20;25.90;1.00
75821;DHT22;64454;51.984;9.838;2023-06-22T09:28:48;26.10;1.00
75821;DHT22;64454;51.984;9.838;2023-06-22T09:31:14;26.40;1.00
75821;DHT22;64454;51.984;9.838;2023-06-22T09:33:42;26.80;1.00
75821;DHT22;64454;51.984;9.838;2023-06-22T09:36:09;27.00;1.00
75821;DHT22;64454;51.984;9.838;2023-06-22T09:38:36;27.20;1.00
75821;DHT22;64454;51.984;9.838;2023-06-22T09:41:04;27.30;1.00
75821;DHT22;64454;51.984;9.838;2023-06-22T09:43:32;27.30;1.00
75821;DHT22;64454;51.984;9.838;2023-06-22T09:46:01;27.30;1.00
75821;DHT22;64454;51.984;9.838;2023-06-22T09:48:28;27.50;1.00
75821;DHT22;64454;51.984;9.838;2023-06-22T09:50:56;27.60;1.00
75821;DHT22;64454;51.984;9.838;2023-06-22T09:53:23;28.00;1.00
75821;DHT22;64454;51.984;9.838;2023-06-22T09:55:49;28.20;1.00
75821;DHT22;64454;51.984;9.838;2023-06-22T09:58:17;28.50;1.00
75821;DHT22;64454;51.984;9.838;2023-06-22T10:00:44;28.80;1.00
75821;DHT22;64454;51.984;9.838;2023-06-22T10:03:11;29.20;1.00
75821;DHT22;64454;51.984;9.838;2023-06-22T10:05:38;29.50;1.00
75821;DHT22;64454;51.984;9.838;2023-06-22T10:08:04;29.80;1.00
75821;DHT22;64454;51.984;9.838;2023-06-22T10:10:33;30.00;1.00
75821;DHT22;64454;51.984;9.838;2023-06-22T10:13:07;30.20;1.00
75821;DHT22;64454;51.984;9.838;2023-06-22T10:15:36;30.30;1.00
75821;DHT22;64454;51.984;9.838;2023-06-22T10:18:04;30.40;1.00
75821;DHT22;64454;51.984;9.838;2023-06-22T10:20:31;30.30;1.00
75821;DHT22;64454;51.984;9.838;2023-06-22T10:22:58;30.60;1.00
75821;DHT22;64454;51.984;9.838;2023-06-22T10:25:24;30.70;1.00
75821;DHT22;64454;51.984;9.838;2023-06-22T10:27:51;30.80;1.00
75821;DHT22;64454;51.984;9.838;2023-06-22T10:30:18;30.70;1.00
75821;DHT22;64454;51.984;9.838;2023-06-22T10:32:46;30.50;1.00
75821;DHT22;64454;51.984;9.838;2023-06-22T10:35:13;30.50;1.00
75821;DHT22;64454;51.984;9.838;2023-06-22T10:37:42;30.70;1.00
75821;DHT22;64454;51.984;9.838;2023-06-22T10:40:10;31.10;1.00
75821;DHT22;64454;51.984;9.838;2023-06-22T10:42:38;31.10;1.00
75821;DHT22;64454;51.984;9.838;2023-06-22T10:45:07;31.10;1.00
75821;DHT22;64454;51.984;9.838;2023-06-22T10:47:34;31.00;1.00
75821;DHT22;64454;51.984;9.838;2023-06-22T10:50:03;30.90;1.00
75821;DHT22;64454;51.984;9.838;2023-06-22T10:52:31;30.80;1.00
75821;DHT22;64454;51.984;9.838;2023-06-22T10:54:58;30.80;1.00
75821;DHT22;64454;51.984;9.838;2023-06-22T10:57:25;31.00;1.00
75821;DHT22;64454;51.984;9.838;2023-06-22T10:59:53;31.30;1.00
75821;DHT22;64454;51.984;9.838;2023-06-22T11:02:20;31.60;1.00
75821;DHT22;64454;51.984;9.838;2023-06-22T11:04:47;31.80;1.00
75821;DHT22;64454;51.984;9.838;2023-06-22T11:07:15;32.00;1.00
75821;DHT22;64454;51.984;9.838;2023-06-22T11:09:43;32.20;1.00
75821;DHT22;64454;51.984;9.838;2023-06-22T11:12:09;32.50;1.00
75821;DHT22;64454;51.984;9.838;2023-06-22T11:14:36;32.90;1.00
75821;DHT22;64454;51.984;9.838;2023-06-22T11:17:03;33.10;1.00
75821;DHT22;64454;51.984;9.838;2023-06-22T11:19:31;33.20;1.00
75821;DHT22;64454;51.984;9.838;2023-06-22T11:21:57;33.30;1.00
75821;DHT22;64454;51.984;9.838;2023-06-22T11:24:26;33.10;1.00
75821;DHT22;64454;51.984;9.838;2023-06-22T11:26:52;33.20;1.00
75821;DHT22;64454;51.984;9.838;2023-06-22T11:29:20;33.40;1.00
75821;DHT22;64454;51.984;9.838;2023-06-22T11:31:47;33.40;1.00
75821;DHT22;64454;51.984;9.838;2023-06-22T11:34:15;33.50;1.00
75821;DHT22;64454;51.984;9.838;2023-06-22T11:36:44;33.60;1.00
75821;DHT22;64454;51.984;9.838;2023-06-22T11:39:13;33.60;1.00
75821;DHT22;64454;51.984;9.838;2023-06-22T11:41:42;33.80;1.00
75821;DHT22;64454;51.984;9.838;2023-06-22T11:44:09;33.80;1.00
75821;DHT22;64454;51.984;9.838;2023-06-22T11:46:36;33.90;1.00
75821;DHT22;64454;51.984;9.838;2023-06-22T11:49:03;34.00;1.00
75821;DHT22;64454;51.984;9.838;2023-06-22T11:51:30;34.00;1.00
75821;DHT22;64454;51.984;9.838;2023-06-22T11:53:57;33.90;1.00
75821;DHT22;64454;51.984;9.838;2023-06-22T11:56:24;34.10;1.00
75821;DHT22;64454;51.984;9.838;2023-06-22T11:58:54;34.20;1.00
75821;DHT22;64454;51.984;9.838;2023-06-22T12:01:21;34.50;1.00
75821;DHT22;64454;51.984;9.838;2023-06-22T12:03:47;34.50;1.00
75821;DHT22;64454;51.984;9.838;2023-06-22T12:06:14;34.30;1.00
75821;DHT22;64454;51.984;9.838;2023-06-22T12:08:41;33.90;1.00
75821;DHT22;64454;51.984;9.838;2023-06-22T12:11:08;33.60;1.00
75821;DHT22;64454;51.984;9.838;2023-06-22T12:13:35;33.40;1.00
75821;DHT22;64454;51.984;9.838;2023-06-22T12:16:03;33.40;1.00
75821;DHT22;64454;51.984;9.838;2023-06-22T12:18:30;33.30;1.00
75821;DHT22;64454;51.984;9.838;2023-06-22T12:20:57;33.60;1.00
75821;DHT22;64454;51.984;9.838;2023-06-22T12:23:24;33.90;1.00
75821;DHT22;64454;51.984;9.838;2023-06-22T12:25:51;34.20;1.00
75821;DHT22;64454;51.984;9.838;2023-06-22T12:28:18;34.50;1.00
75821;DHT22;64454;51.984;9.838;2023-06-22T12:30:44;34.50;1.00
75821;DHT22;64454;51.984;9.838;2023-06-22T12:33:12;34.30;1.00
75821;DHT22;64454;51.984;9.838;2023-06-22T12:35:39;34.30;1.00
75821;DHT22;64454;51.984;9.838;2023-06-22T12:38:06;34.20;1.00
75821;DHT22;64454;51.984;9.838;2023-06-22T12:40:33;34.10;1.00
75821;DHT22;64454;51.984;9.838;2023-06-22T12:43:00;33.90;1.00
75821;DHT22;64454;51.984;9.838;2023-06-22T12:45:27;33.80;1.00
75821;DHT22;64454;51.984;9.838;2023-06-22T12:47:57;33.30;1.00
75821;DHT22;64454;51.984;9.838;2023-06-22T12:50:26;32.80;1.00
75821;DHT22;64454;51.984;9.838;2023-06-22T12:52:53;32.50;1.00
75821;DHT22;64454;51.984;9.838;2023-06-22T12:55:20;32.20;1.00
75821;DHT22;64454;51.984;9.838;2023-06-22T12:57:46;31.90;1.00
75821;DHT22;64454;51.984;9.838;2023-06-22T13:00:14;31.70;1.00
75821;DHT22;64454;51.984;9.838;2023-06-22T13:02:41;31.50;1.00
75821;DHT22;64454;51.984;9.838;2023-06-22T13:05:09;31.20;1.00
75821;DHT22;64454;51.984;9.838;2023-06-22T13:07:37;31.00;1.00
75821;DHT22;64454;51.984;9.838;2023-06-22T13:10:04;30.80;1.00
75821;DHT22;64454;51.984;9.838;2023-06-22T13:12:32;30.50;1.00
75821;DHT22;64454;51.984;9.838;2023-06-22T13:14:58;30.40;1.00
75821;DHT22;64454;51.984;9.838;2023-06-22T13:17:25;30.20;1.00
75821;DHT22;64454;51.984;9.838;2023-06-22T13:19:52;30.20;1.00
75821;DHT22;64454;51.984;9.838;2023-06-22T13:22:30;30.10;1.00
75821;DHT22;64454;51.984;9.838;2023-06-22T13:24:59;30.00;1.00
75821;DHT22;64454;51.984;9.838;2023-06-22T13:27:27;30.00;1.00
75821;DHT22;64454;51.984;9.838;2023-06-22T13:29:54;29.90;1.00
75821;DHT22;64454;51.984;9.838;2023-06-22T13:32:21;29.80;1.00
75821;DHT22;64454;51.984;9.838;2023-06-22T13:34:47;29.80;1.00
75821;DHT22;64454;51.984;9.838;2023-06-22T13:37:14;29.60;1.00
75821;DHT22;64454;51.984;9.838;2023-06-22T13:39:41;29.70;1.00
75821;DHT22;64454;51.984;9.838;2023-06-22T13:42:10;29.70;1.00
75821;DHT22;64454;51.984;9.838;2023-06-22T13:44:36;29.50;1.00
75821;DHT22;64454;51.984;9.838;2023-06-22T13:47:04;29.50;1.00
75821;DHT22;64454;51.984;9.838;2023-06-22T13:49:31;29.40;1.00
75821;DHT22;64454;51.984;9.838;2023-06-22T13:51:59;29.50;1.00
75821;DHT22;64454;51.984;9.838;2023-06-22T13:54:26;29.40;1.00
75821;DHT22;64454;51.984;9.838;2023-06-22T13:56:52;29.50;1.00
75821;DHT22;64454;51.984;9.838;2023-06-22T13:59:21;29.70;1.00
75821;DHT22;64454;51.984;9.838;2023-06-22T14:01:48;30.00;1.00
75821;DHT22;64454;51.984;9.838;2023-06-22T14:04:17;30.10;1.00
75821;DHT22;64454;51.984;9.838;2023-06-22T14:06:45;30.20;1.00
75821;DHT22;64454;51.984;9.838;2023-06-22T14:09:12;30.10;1.00
75821;DHT22;64454;51.984;9.838;2023-06-22T14:11:40;30.20;1.00
75821;DHT22;64454;51.984;9.838;2023-06-22T14:14:07;30.20;1.00
75821;DHT22;64454;51.984;9.838;2023-06-22T14:16:35;30.20;1.00
75821;DHT22;64454;51.984;9.838;2023-06-22T14:19:02;30.30;1.00
75821;DHT22;64454;51.984;9.838;2023-06-22T14:21:29;30.10;1.00
75821;DHT22;64454;51.984;9.838;2023-06-22T14:23:55;30.20;1.00
75821;DHT22;64454;51.984;9.838;2023-06-22T14:26:22;30.10;1.00
75821;DHT22;64454;51.984;9.838;2023-06-22T14:28:49;30.20;1.00
75821;DHT22;64454;51.984;9.838;2023-06-22T14:31:17;30.30;1.00
75821;DHT22;64454;51.984;9.838;2023-06-22T14:33:47;30.20;1.00
75821;DHT22;64454;51.984;9.838;2023-06-22T14:36:15;30.20;1.00
75821;DHT22;64454;51.984;9.838;2023-06-22T14:38:43;30.00;1.00
75821;DHT22;64454;51.984;9.838;2023-06-22T14:41:11;29.90;1.00
75821;DHT22;64454;51.984;9.838;2023-06-22T14:43:38;29.80;1.00
75821;DHT22;64454;51.984;9.838;2023-06-22T14:46:05;29.70;1.00
75821;DHT22;64454;51.984;9.838;2023-06-22T14:48:32;29.50;1.00
75821;DHT22;64454;51.984;9.838;2023-06-22T14:51:00;29.40;1.00
75821;DHT22;64454;51.984;9.838;2023-06-22T14:53:27;29.20;1.00
75821;DHT22;64454;51.984;9.838;2023-06-22T14:55:54;29.10;1.00
75821;DHT22;64454;51.984;9.838;2023-06-22T14:58:21;29.00;1.00
75821;DHT22;64454;51.984;9.838;2023-06-22T15:00:48;28.80;1.00
75821;DHT22;64454;51.984;9.838;2023-06-22T15:03:15;28.60;1.00
75821;DHT22;64454;51.984;9.838;2023-06-22T15:05:47;28.40;1.00
75821;DHT22;64454;51.984;9.838;2023-06-22T15:08:15;28.30;1.00
75821;DHT22;64454;51.984;9.838;2023-06-22T15:10:42;28.20;1.00
75821;DHT22;64454;51.984;9.838;2023-06-22T15:13:08;28.10;1.00
75821;DHT22;64454;51.984;9.838;2023-06-22T15:15:35;27.90;1.00
75821;DHT22;64454;51.984;9.838;2023-06-22T15:18:03;27.60;1.00
75821;DHT22;64454;51.984;9.838;2023-06-22T15:20:30;27.50;1.00
75821;DHT22;64454;51.984;9.838;2023-06-22T15:22:57;27.30;1.00
75821;DHT22;64454;51.984;9.838;2023-06-22T15:25:26;27.00;1.00
75821;DHT22;64454;51.984;9.838;2023-06-22T15:27:52;26.70;1.00
75821;DHT22;64454;51.984;9.838;2023-06-22T15:30:19;26.40;1.00
75821;DHT22;64454;51.984;9.838;2023-06-22T15:32:46;26.20;1.00
75821;DHT22;64454;51.984;9.838;2023-06-22T15:35:14;26.00;1.00
75821;DHT22;64454;51.984;9.838;2023-06-22T15:37:43;25.90;1.00
75821;DHT22;64454;51.984;9.838;2023-06-22T15:40:11;25.70;1.00
75821;DHT22;64454;51.984;9.838;2023-06-22T15:42:39;25.60;1.00
75821;DHT22;64454;51.984;9.838;2023-06-22T15:45:07;25.50;1.00
75821;DHT22;64454;51.984;9.838;2023-06-22T15:47:34;25.40;1.00